Terminal Aerodrome Forecast
Issued by NWS

Home | Current Version | Previous Version | Text Only | Print | Product List | Glossary On
Versions: 1 2 3 4 5 6 7 8 9 10 11 12
000
FTUS42 KMLB 311100
TAFSUA
TAF
KSUA 311127Z 3112/0112 36006KT P6SM FEW040 SCT250
     FM311400 06013G20KT P6SM SCT040 BKN250
     FM010000 08007KT P6SM SCT040 BKN250=

USA.gov is the U.S. government's official web portal to all federal, state and local government web resources and services.